sensor_id;sensor_type;location;lat;lon;timestamp;temperature;humidity
18101;DHT22;9177;49.156;8.142;2023-07-24T00:01:05;25.10;93.90
18101;DHT22;9177;49.156;8.142;2023-07-24T00:03:32;25.10;93.90
18101;DHT22;9177;49.156;8.142;2023-07-24T00:05:59;25.10;93.90
18101;DHT22;9177;49.156;8.142;2023-07-24T00:08:28;25.10;93.90
18101;DHT22;9177;49.156;8.142;2023-07-24T00:10:55;25.10;93.90
18101;DHT22;9177;49.156;8.142;2023-07-24T00:13:22;25.10;93.90
18101;DHT22;9177;49.156;8.142;2023-07-24T00:15:48;25.10;93.90
18101;DHT22;9177;49.156;8.142;2023-07-24T00:18:16;25.10;93.90
18101;DHT22;9177;49.156;8.142;2023-07-24T00:20:43;25.10;93.90
18101;DHT22;9177;49.156;8.142;2023-07-24T00:23:09;25.10;93.90
18101;DHT22;9177;49.156;8.142;2023-07-24T00:25:38;25.10;93.90
18101;DHT22;9177;49.156;8.142;2023-07-24T00:28:05;25.10;93.90
18101;DHT22;9177;49.156;8.142;2023-07-24T00:30:32;25.10;93.90
18101;DHT22;9177;49.156;8.142;2023-07-24T00:32:59;25.10;93.90
18101;DHT22;9177;49.156;8.142;2023-07-24T00:35:26;25.10;93.90
18101;DHT22;9177;49.156;8.142;2023-07-24T00:37:53;25.10;93.90
18101;DHT22;9177;49.156;8.142;2023-07-24T00:40:20;25.10;93.90
18101;DHT22;9177;49.156;8.142;2023-07-24T00:42:48;25.10;93.90
18101;DHT22;9177;49.156;8.142;2023-07-24T00:45:16;25.10;93.90
18101;DHT22;9177;49.156;8.142;2023-07-24T00:47:43;25.10;93.90
18101;DHT22;9177;49.156;8.142;2023-07-24T00:50:11;25.10;93.90
18101;DHT22;9177;49.156;8.142;2023-07-24T00:52:39;25.10;94.30
18101;DHT22;9177;49.156;8.142;2023-07-24T00:55:07;25.10;93.90
18101;DHT22;9177;49.156;8.142;2023-07-24T00:57:35;25.10;93.90
18101;DHT22;9177;49.156;8.142;2023-07-24T01:00:05;25.10;93.90
18101;DHT22;9177;49.156;8.142;2023-07-24T01:02:32;25.10;93.90
18101;DHT22;9177;49.156;8.142;2023-07-24T01:04:59;25.10;94.00
18101;DHT22;9177;49.156;8.142;2023-07-24T01:07:26;25.10;94.00
18101;DHT22;9177;49.156;8.142;2023-07-24T01:09:54;25.00;93.90
18101;DHT22;9177;49.156;8.142;2023-07-24T01:12:26;25.10;94.00
18101;DHT22;9177;49.156;8.142;2023-07-24T01:15:03;25.10;94.00
18101;DHT22;9177;49.156;8.142;2023-07-24T01:17:39;25.10;94.00
18101;DHT22;9177;49.156;8.142;2023-07-24T01:20:08;25.10;94.00
18101;DHT22;9177;49.156;8.142;2023-07-24T01:22:39;25.10;94.00
18101;DHT22;9177;49.156;8.142;2023-07-24T01:25:10;25.00;93.90
18101;DHT22;9177;49.156;8.142;2023-07-24T01:27:45;25.10;94.00
18101;DHT22;9177;49.156;8.142;2023-07-24T01:30:17;25.10;94.00
18101;DHT22;9177;49.156;8.142;2023-07-24T01:32:44;25.10;94.00
18101;DHT22;9177;49.156;8.142;2023-07-24T01:35:11;25.10;94.00
18101;DHT22;9177;49.156;8.142;2023-07-24T01:37:38;25.00;94.00
18101;DHT22;9177;49.156;8.142;2023-07-24T01:40:07;25.10;94.00
18101;DHT22;9177;49.156;8.142;2023-07-24T01:42:34;25.10;94.00
18101;DHT22;9177;49.156;8.142;2023-07-24T01:45:04;25.10;94.00
18101;DHT22;9177;49.156;8.142;2023-07-24T01:47:31;25.10;94.00
18101;DHT22;9177;49.156;8.142;2023-07-24T01:49:58;25.10;94.00
18101;DHT22;9177;49.156;8.142;2023-07-24T01:52:25;25.10;94.00
18101;DHT22;9177;49.156;8.142;2023-07-24T01:54:52;25.00;94.00
18101;DHT22;9177;49.156;8.142;2023-07-24T01:57:19;25.10;94.10
18101;DHT22;9177;49.156;8.142;2023-07-24T01:59:46;25.00;94.00
18101;DHT22;9177;49.156;8.142;2023-07-24T02:02:15;25.00;94.00
18101;DHT22;9177;49.156;8.142;2023-07-24T02:04:42;25.00;94.00
18101;DHT22;9177;49.156;8.142;2023-07-24T02:07:10;25.00;94.00
18101;DHT22;9177;49.156;8.142;2023-07-24T02:09:36;25.00;94.00
18101;DHT22;9177;49.156;8.142;2023-07-24T02:12:04;25.10;94.10
18101;DHT22;9177;49.156;8.142;2023-07-24T02:14:31;25.00;94.00
18101;DHT22;9177;49.156;8.142;2023-07-24T02:16:58;25.00;94.00
18101;DHT22;9177;49.156;8.142;2023-07-24T02:19:27;25.00;94.00
18101;DHT22;9177;49.156;8.142;2023-07-24T02:21:54;25.00;94.00
18101;DHT22;9177;49.156;8.142;2023-07-24T02:24:21;25.00;94.10
18101;DHT22;9177;49.156;8.142;2023-07-24T02:26:47;25.00;94.40
18101;DHT22;9177;49.156;8.142;2023-07-24T02:29:15;25.00;94.00
18101;DHT22;9177;49.156;8.142;2023-07-24T02:31:41;25.00;94.00
18101;DHT22;9177;49.156;8.142;2023-07-24T02:34:09;25.00;94.10
18101;DHT22;9177;49.156;8.142;2023-07-24T02:36:37;25.00;94.10
18101;DHT22;9177;49.156;8.142;2023-07-24T02:39:06;25.00;94.10
18101;DHT22;9177;49.156;8.142;2023-07-24T02:41:33;25.00;94.10
18101;DHT22;9177;49.156;8.142;2023-07-24T02:44:02;25.00;94.10
18101;DHT22;9177;49.156;8.142;2023-07-24T02:46:29;25.00;94.10
18101;DHT22;9177;49.156;8.142;2023-07-24T02:48:56;25.00;94.10
18101;DHT22;9177;49.156;8.142;2023-07-24T02:51:23;25.00;94.10
18101;DHT22;9177;49.156;8.142;2023-07-24T02:53:53;25.00;94.10
18101;DHT22;9177;49.156;8.142;2023-07-24T02:56:20;25.00;94.10
18101;DHT22;9177;49.156;8.142;2023-07-24T02:58:47;25.00;94.10
18101;DHT22;9177;49.156;8.142;2023-07-24T03:01:14;25.00;94.10
18101;DHT22;9177;49.156;8.142;2023-07-24T03:03:41;25.00;94.10
18101;DHT22;9177;49.156;8.142;2023-07-24T03:06:08;25.00;94.10
18101;DHT22;9177;49.156;8.142;2023-07-24T03:08:35;25.00;94.10
18101;DHT22;9177;49.156;8.142;2023-07-24T03:11:07;25.00;94.10
18101;DHT22;9177;49.156;8.142;2023-07-24T03:13:34;25.00;94.10
18101;DHT22;9177;49.156;8.142;2023-07-24T03:16:01;25.00;94.10
18101;DHT22;9177;49.156;8.142;2023-07-24T03:18:28;25.00;94.10
18101;DHT22;9177;49.156;8.142;2023-07-24T03:20:57;25.00;94.10
18101;DHT22;9177;49.156;8.142;2023-07-24T03:23:24;25.00;94.10
18101;DHT22;9177;49.156;8.142;2023-07-24T03:25:51;25.00;94.10
18101;DHT22;9177;49.156;8.142;2023-07-24T03:28:22;25.00;94.10
18101;DHT22;9177;49.156;8.142;2023-07-24T03:30:49;25.00;94.50
18101;DHT22;9177;49.156;8.142;2023-07-24T03:33:16;25.00;94.10
18101;DHT22;9177;49.156;8.142;2023-07-24T03:35:43;25.00;94.10
18101;DHT22;9177;49.156;8.142;2023-07-24T03:38:10;25.00;94.20
18101;DHT22;9177;49.156;8.142;2023-07-24T03:40:37;25.00;94.20
18101;DHT22;9177;49.156;8.142;2023-07-24T03:43:04;25.00;94.20
18101;DHT22;9177;49.156;8.142;2023-07-24T03:45:32;25.00;94.20
18101;DHT22;9177;49.156;8.142;2023-07-24T03:47:59;25.00;94.20
18101;DHT22;9177;49.156;8.142;2023-07-24T03:50:26;25.00;94.20
18101;DHT22;9177;49.156;8.142;2023-07-24T03:52:55;25.00;94.20
18101;DHT22;9177;49.156;8.142;2023-07-24T03:55:22;25.00;94.20
18101;DHT22;9177;49.156;8.142;2023-07-24T03:57:49;25.00;94.20
18101;DHT22;9177;49.156;8.142;2023-07-24T04:00:16;25.00;94.20
18101;DHT22;9177;49.156;8.142;2023-07-24T04:02:46;25.00;94.20
18101;DHT22;9177;49.156;8.142;2023-07-24T04:05:13;25.00;94.20
18101;DHT22;9177;49.156;8.142;2023-07-24T04:07:41;25.00;94.20
18101;DHT22;9177;49.156;8.142;2023-07-24T04:10:09;25.00;94.20
18101;DHT22;9177;49.156;8.142;2023-07-24T04:12:36;25.00;94.20
18101;DHT22;9177;49.156;8.142;2023-07-24T04:15:03;25.00;94.20
18101;DHT22;9177;49.156;8.142;2023-07-24T04:17:30;25.00;94.20
18101;DHT22;9177;49.156;8.142;2023-07-24T04:19:59;25.00;94.60
18101;DHT22;9177;49.156;8.142;2023-07-24T04:22:26;25.00;94.20
18101;DHT22;9177;49.156;8.142;2023-07-24T04:24:53;25.00;94.20
18101;DHT22;9177;49.156;8.142;2023-07-24T04:27:20;25.00;94.30
18101;DHT22;9177;49.156;8.142;2023-07-24T04:29:47;25.00;94.30
18101;DHT22;9177;49.156;8.142;2023-07-24T04:32:14;25.00;94.30
18101;DHT22;9177;49.156;8.142;2023-07-24T04:34:41;24.90;94.20
18101;DHT22;9177;49.156;8.142;2023-07-24T04:37:09;25.00;94.60
18101;DHT22;9177;49.156;8.142;2023-07-24T04:39:38;25.00;94.30
18101;DHT22;9177;49.156;8.142;2023-07-24T04:42:05;25.00;94.30
18101;DHT22;9177;49.156;8.142;2023-07-24T04:44:32;25.00;94.30
18101;DHT22;9177;49.156;8.142;2023-07-24T04:46:59;25.00;94.30
18101;DHT22;9177;49.156;8.142;2023-07-24T04:49:28;25.00;94.30
18101;DHT22;9177;49.156;8.142;2023-07-24T04:51:56;25.00;94.30
18101;DHT22;9177;49.156;8.142;2023-07-24T04:54:28;25.00;94.30
18101;DHT22;9177;49.156;8.142;2023-07-24T04:56:55;24.90;94.30
18101;DHT22;9177;49.156;8.142;2023-07-24T04:59:22;25.00;94.30
18101;DHT22;9177;49.156;8.142;2023-07-24T05:01:49;25.00;94.30
18101;DHT22;9177;49.156;8.142;2023-07-24T05:04:18;25.00;94.30
18101;DHT22;9177;49.156;8.142;2023-07-24T05:06:45;25.00;94.30
18101;DHT22;9177;49.156;8.142;2023-07-24T05:09:12;24.90;94.30
18101;DHT22;9177;49.156;8.142;2023-07-24T05:11:41;25.00;94.30
18101;DHT22;9177;49.156;8.142;2023-07-24T05:14:19;25.00;94.30
18101;DHT22;9177;49.156;8.142;2023-07-24T05:16:46;25.00;94.30
18101;DHT22;9177;49.156;8.142;2023-07-24T05:19:13;25.00;94.40
18101;DHT22;9177;49.156;8.142;2023-07-24T05:21:40;25.00;94.30
18101;DHT22;9177;49.156;8.142;2023-07-24T05:24:07;24.90;94.30
18101;DHT22;9177;49.156;8.142;2023-07-24T05:26:34;25.00;94.30
18101;DHT22;9177;49.156;8.142;2023-07-24T05:29:05;25.00;94.30
18101;DHT22;9177;49.156;8.142;2023-07-24T05:31:34;24.90;94.30
18101;DHT22;9177;49.156;8.142;2023-07-24T05:34:01;24.90;94.30
18101;DHT22;9177;49.156;8.142;2023-07-24T05:36:29;24.90;94.30
18101;DHT22;9177;49.156;8.142;2023-07-24T05:38:56;25.00;94.40
18101;DHT22;9177;49.156;8.142;2023-07-24T05:41:23;25.00;94.40
18101;DHT22;9177;49.156;8.142;2023-07-24T05:43:50;24.90;94.30
18101;DHT22;9177;49.156;8.142;2023-07-24T05:46:19;24.90;94.40
18101;DHT22;9177;49.156;8.142;2023-07-24T05:48:46;25.00;94.40
18101;DHT22;9177;49.156;8.142;2023-07-24T05:51:13;25.00;94.40
18101;DHT22;9177;49.156;8.142;2023-07-24T05:53:43;25.00;94.40
18101;DHT22;9177;49.156;8.142;2023-07-24T05:56:10;25.00;94.40
18101;DHT22;9177;49.156;8.142;2023-07-24T05:58:37;25.00;94.80
18101;DHT22;9177;49.156;8.142;2023-07-24T06:01:04;25.00;94.40
18101;DHT22;9177;49.156;8.142;2023-07-24T06:03:35;24.90;94.40
18101;DHT22;9177;49.156;8.142;2023-07-24T06:06:02;25.00;94.40
18101;DHT22;9177;49.156;8.142;2023-07-24T06:08:31;24.90;94.40
18101;DHT22;9177;49.156;8.142;2023-07-24T06:11:00;24.90;94.40
18101;DHT22;9177;49.156;8.142;2023-07-24T06:13:28;25.00;94.40
18101;DHT22;9177;49.156;8.142;2023-07-24T06:15:55;24.90;94.40
18101;DHT22;9177;49.156;8.142;2023-07-24T06:18:24;24.90;94.40
18101;DHT22;9177;49.156;8.142;2023-07-24T06:20:54;25.00;94.40
18101;DHT22;9177;49.156;8.142;2023-07-24T06:23:28;25.00;94.40
18101;DHT22;9177;49.156;8.142;2023-07-24T06:25:56;25.00;94.80
18101;DHT22;9177;49.156;8.142;2023-07-24T06:28:23;25.00;94.90
18101;DHT22;9177;49.156;8.142;2023-07-24T06:30:52;25.00;94.50
18101;DHT22;9177;49.156;8.142;2023-07-24T06:33:19;25.00;94.50
18101;DHT22;9177;49.156;8.142;2023-07-24T06:35:56;25.00;94.50
18101;DHT22;9177;49.156;8.142;2023-07-24T06:38:31;25.00;94.50
18101;DHT22;9177;49.156;8.142;2023-07-24T06:40:58;25.00;94.70
18101;DHT22;9177;49.156;8.142;2023-07-24T06:43:25;25.00;94.70
18101;DHT22;9177;49.156;8.142;2023-07-24T06:45:53;25.00;94.70
18101;DHT22;9177;49.156;8.142;2023-07-24T06:48:20;25.00;94.80
18101;DHT22;9177;49.156;8.142;2023-07-24T06:50:51;25.00;95.00
18101;DHT22;9177;49.156;8.142;2023-07-24T06:53:20;25.00;95.10
18101;DHT22;9177;49.156;8.142;2023-07-24T06:56:04;25.00;95.30
18101;DHT22;9177;49.156;8.142;2023-07-24T06:58:44;25.00;95.50
18101;DHT22;9177;49.156;8.142;2023-07-24T07:01:10;25.00;95.60
18101;DHT22;9177;49.156;8.142;2023-07-24T07:03:37;25.00;95.80
18101;DHT22;9177;49.156;8.142;2023-07-24T07:06:05;25.00;96.30
18101;DHT22;9177;49.156;8.142;2023-07-24T07:08:33;25.10;96.60
18101;DHT22;9177;49.156;8.142;2023-07-24T07:11:01;25.40;96.50
18101;DHT22;9177;49.156;8.142;2023-07-24T07:13:28;25.50;96.40
18101;DHT22;9177;49.156;8.142;2023-07-24T07:15:55;25.40;96.30
18101;DHT22;9177;49.156;8.142;2023-07-24T07:18:23;25.40;96.30
18101;DHT22;9177;49.156;8.142;2023-07-24T07:20:51;25.20;96.40
18101;DHT22;9177;49.156;8.142;2023-07-24T07:23:18;25.20;96.50
18101;DHT22;9177;49.156;8.142;2023-07-24T07:25:47;25.20;96.50
18101;DHT22;9177;49.156;8.142;2023-07-24T07:28:15;25.20;96.50
18101;DHT22;9177;49.156;8.142;2023-07-24T07:30:43;25.10;96.70
18101;DHT22;9177;49.156;8.142;2023-07-24T07:33:13;25.10;96.60
18101;DHT22;9177;49.156;8.142;2023-07-24T07:35:40;25.10;96.60
18101;DHT22;9177;49.156;8.142;2023-07-24T07:38:07;25.10;96.40
18101;DHT22;9177;49.156;8.142;2023-07-24T07:40:37;25.10;96.50
18101;DHT22;9177;49.156;8.142;2023-07-24T07:43:05;25.10;96.50
18101;DHT22;9177;49.156;8.142;2023-07-24T07:45:32;25.10;96.70
18101;DHT22;9177;49.156;8.142;2023-07-24T07:47:59;25.10;97.40
18101;DHT22;9177;49.156;8.142;2023-07-24T07:50:26;25.10;96.90
18101;DHT22;9177;49.156;8.142;2023-07-24T07:52:53;25.10;97.20
18101;DHT22;9177;49.156;8.142;2023-07-24T07:55:20;25.10;97.40
18101;DHT22;9177;49.156;8.142;2023-07-24T07:57:47;25.10;96.80
18101;DHT22;9177;49.156;8.142;2023-07-24T08:00:16;25.10;97.30
18101;DHT22;9177;49.156;8.142;2023-07-24T08:02:46;25.10;97.10
18101;DHT22;9177;49.156;8.142;2023-07-24T08:05:14;25.10;96.90
18101;DHT22;9177;49.156;8.142;2023-07-24T08:07:42;25.10;97.20
18101;DHT22;9177;49.156;8.142;2023-07-24T08:10:10;25.10;96.90
18101;DHT22;9177;49.156;8.142;2023-07-24T08:12:42;25.20;96.90
18101;DHT22;9177;49.156;8.142;2023-07-24T08:15:10;25.10;97.30
18101;DHT22;9177;49.156;8.142;2023-07-24T08:17:39;25.20;97.30
18101;DHT22;9177;49.156;8.142;2023-07-24T08:20:07;25.20;97.40
18101;DHT22;9177;49.156;8.142;2023-07-24T08:22:34;25.20;97.30
18101;DHT22;9177;49.156;8.142;2023-07-24T08:25:01;25.20;97.30
18101;DHT22;9177;49.156;8.142;2023-07-24T08:27:28;25.20;97.60
18101;DHT22;9177;49.156;8.142;2023-07-24T08:29:55;25.20;97.10
18101;DHT22;9177;49.156;8.142;2023-07-24T08:32:23;25.20;97.20
18101;DHT22;9177;49.156;8.142;2023-07-24T08:34:52;25.30;97.20
18101;DHT22;9177;49.156;8.142;2023-07-24T08:37:19;25.30;97.10
18101;DHT22;9177;49.156;8.142;2023-07-24T08:39:46;25.30;97.20
18101;DHT22;9177;49.156;8.142;2023-07-24T08:42:14;25.30;97.20
18101;DHT22;9177;49.156;8.142;2023-07-24T08:44:42;25.30;97.50
18101;DHT22;9177;49.156;8.142;2023-07-24T08:47:12;25.30;97.40
18101;DHT22;9177;49.156;8.142;2023-07-24T08:49:41;25.30;97.30
18101;DHT22;9177;49.156;8.142;2023-07-24T08:52:10;25.30;97.30
18101;DHT22;9177;49.156;8.142;2023-07-24T08:54:38;25.30;97.40
18101;DHT22;9177;49.156;8.142;2023-07-24T08:57:09;25.20;97.40
18101;DHT22;9177;49.156;8.142;2023-07-24T08:59:36;25.30;97.40
18101;DHT22;9177;49.156;8.142;2023-07-24T09:02:03;25.30;97.40
18101;DHT22;9177;49.156;8.142;2023-07-24T09:04:34;25.30;97.50
18101;DHT22;9177;49.156;8.142;2023-07-24T09:07:02;25.40;97.60
18101;DHT22;9177;49.156;8.142;2023-07-24T09:09:30;25.40;97.60
18101;DHT22;9177;49.156;8.142;2023-07-24T09:11:58;25.50;97.60
18101;DHT22;9177;49.156;8.142;2023-07-24T09:14:27;25.50;97.60
18101;DHT22;9177;49.156;8.142;2023-07-24T09:17:05;25.50;97.60
18101;DHT22;9177;49.156;8.142;2023-07-24T09:19:32;25.50;97.50
18101;DHT22;9177;49.156;8.142;2023-07-24T09:22:09;25.50;97.50
18101;DHT22;9177;49.156;8.142;2023-07-24T09:24:48;25.50;97.60
18101;DHT22;9177;49.156;8.142;2023-07-24T09:27:15;25.50;97.60
18101;DHT22;9177;49.156;8.142;2023-07-24T09:29:47;25.50;97.50
18101;DHT22;9177;49.156;8.142;2023-07-24T09:32:21;25.50;97.60
18101;DHT22;9177;49.156;8.142;2023-07-24T09:34:49;25.50;97.50
18101;DHT22;9177;49.156;8.142;2023-07-24T09:37:24;25.50;97.60
18101;DHT22;9177;49.156;8.142;2023-07-24T09:39:54;25.50;97.60
18101;DHT22;9177;49.156;8.142;2023-07-24T09:42:28;25.40;97.50
18101;DHT22;9177;49.156;8.142;2023-07-24T09:44:55;25.50;97.60
18101;DHT22;9177;49.156;8.142;2023-07-24T09:47:23;25.40;97.50
18101;DHT22;9177;49.156;8.142;2023-07-24T09:49:51;25.40;98.00
18101;DHT22;9177;49.156;8.142;2023-07-24T09:52:19;25.40;97.60
18101;DHT22;9177;49.156;8.142;2023-07-24T09:54:58;25.40;97.60
18101;DHT22;9177;49.156;8.142;2023-07-24T09:57:26;25.40;97.70
18101;DHT22;9177;49.156;8.142;2023-07-24T09:59:56;25.40;97.70
18101;DHT22;9177;49.156;8.142;2023-07-24T10:02:24;25.40;97.80
18101;DHT22;9177;49.156;8.142;2023-07-24T10:04:52;25.40;97.80
18101;DHT22;9177;49.156;8.142;2023-07-24T10:07:20;25.40;97.80
18101;DHT22;9177;49.156;8.142;2023-07-24T10:09:49;25.30;97.80
18101;DHT22;9177;49.156;8.142;2023-07-24T10:12:18;25.30;97.80
18101;DHT22;9177;49.156;8.142;2023-07-24T10:15:11;25.30;97.80
18101;DHT22;9177;49.156;8.142;2023-07-24T10:17:46;25.30;97.90
18101;DHT22;9177;49.156;8.142;2023-07-24T10:20:19;25.30;97.90
18101;DHT22;9177;49.156;8.142;2023-07-24T10:22:49;25.20;97.90
18101;DHT22;9177;49.156;8.142;2023-07-24T10:25:16;25.20;97.90
18101;DHT22;9177;49.156;8.142;2023-07-24T10:27:44;25.20;98.30
18101;DHT22;9177;49.156;8.142;2023-07-24T10:30:12;25.30;97.90
18101;DHT22;9177;49.156;8.142;2023-07-24T10:32:45;25.20;97.90
18101;DHT22;9177;49.156;8.142;2023-07-24T10:35:19;25.20;97.90
18101;DHT22;9177;49.156;8.142;2023-07-24T10:37:59;25.20;97.90
18101;DHT22;9177;49.156;8.142;2023-07-24T10:40:26;25.20;97.90
18101;DHT22;9177;49.156;8.142;2023-07-24T10:43:01;25.20;97.90
18101;DHT22;9177;49.156;8.142;2023-07-24T10:45:47;25.20;97.90
18101;DHT22;9177;49.156;8.142;2023-07-24T10:48:14;25.20;97.90
18101;DHT22;9177;49.156;8.142;2023-07-24T10:50:43;25.20;97.90
18101;DHT22;9177;49.156;8.142;2023-07-24T10:53:11;25.20;98.00
18101;DHT22;9177;49.156;8.142;2023-07-24T10:55:44;25.20;97.90
18101;DHT22;9177;49.156;8.142;2023-07-24T10:58:14;25.20;98.10
18101;DHT22;9177;49.156;8.142;2023-07-24T11:00:43;25.20;98.00
18101;DHT22;9177;49.156;8.142;2023-07-24T11:03:11;25.20;98.30
18101;DHT22;9177;49.156;8.142;2023-07-24T11:05:39;25.20;98.00
18101;DHT22;9177;49.156;8.142;2023-07-24T11:08:11;25.20;98.70
18101;DHT22;9177;49.156;8.142;2023-07-24T11:10:44;25.20;98.80
18101;DHT22;9177;49.156;8.142;2023-07-24T11:13:14;25.20;98.90
18101;DHT22;9177;49.156;8.142;2023-07-24T11:15:41;25.30;98.80
18101;DHT22;9177;49.156;8.142;2023-07-24T11:18:09;25.20;98.90
18101;DHT22;9177;49.156;8.142;2023-07-24T11:20:44;25.30;98.70
18101;DHT22;9177;49.156;8.142;2023-07-24T11:23:12;25.30;98.40
18101;DHT22;9177;49.156;8.142;2023-07-24T11:25:40;25.30;98.50
18101;DHT22;9177;49.156;8.142;2023-07-24T11:28:09;25.40;99.10
18101;DHT22;9177;49.156;8.142;2023-07-24T11:30:38;25.30;98.90
18101;DHT22;9177;49.156;8.142;2023-07-24T11:33:07;25.40;99.10
18101;DHT22;9177;49.156;8.142;2023-07-24T11:35:36;25.40;99.40
18101;DHT22;9177;49.156;8.142;2023-07-24T11:38:05;25.40;99.40
18101;DHT22;9177;49.156;8.142;2023-07-24T11:40:33;25.40;99.30
18101;DHT22;9177;49.156;8.142;2023-07-24T11:43:04;25.40;99.40
18101;DHT22;9177;49.156;8.142;2023-07-24T11:45:42;25.40;99.20
18101;DHT22;9177;49.156;8.142;2023-07-24T11:48:10;25.40;99.20
18101;DHT22;9177;49.156;8.142;2023-07-24T11:50:42;25.40;99.40
18101;DHT22;9177;49.156;8.142;2023-07-24T11:53:20;25.40;99.10
18101;DHT22;9177;49.156;8.142;2023-07-24T11:55:52;25.40;98.90
18101;DHT22;9177;49.156;8.142;2023-07-24T11:58:22;25.40;99.00
18101;DHT22;9177;49.156;8.142;2023-07-24T12:00:51;25.40;99.00
18101;DHT22;9177;49.156;8.142;2023-07-24T12:03:19;25.40;99.40
18101;DHT22;9177;49.156;8.142;2023-07-24T12:05:47;25.40;99.20
18101;DHT22;9177;49.156;8.142;2023-07-24T12:08:16;25.40;99.50
18101;DHT22;9177;49.156;8.142;2023-07-24T12:10:43;25.40;99.50
18101;DHT22;9177;49.156;8.142;2023-07-24T12:13:12;25.40;99.60
18101;DHT22;9177;49.156;8.142;2023-07-24T12:15:39;25.40;99.60
18101;DHT22;9177;49.156;8.142;2023-07-24T12:18:09;25.50;99.70
18101;DHT22;9177;49.156;8.142;2023-07-24T12:20:36;25.60;99.70
18101;DHT22;9177;49.156;8.142;2023-07-24T12:23:03;25.60;99.70
18101;DHT22;9177;49.156;8.142;2023-07-24T12:25:30;25.70;99.70
18101;DHT22;9177;49.156;8.142;2023-07-24T12:27:57;25.70;99.60
18101;DHT22;9177;49.156;8.142;2023-07-24T12:30:25;25.80;99.90
18101;DHT22;9177;49.156;8.142;2023-07-24T12:32:52;25.90;99.60
18101;DHT22;9177;49.156;8.142;2023-07-24T12:35:21;25.90;99.50
18101;DHT22;9177;49.156;8.142;2023-07-24T12:37:48;26.00;99.50
18101;DHT22;9177;49.156;8.142;2023-07-24T12:40:15;26.00;99.40
18101;DHT22;9177;49.156;8.142;2023-07-24T12:42:42;26.00;99.30
18101;DHT22;9177;49.156;8.142;2023-07-24T12:45:09;26.10;99.20
18101;DHT22;9177;49.156;8.142;2023-07-24T12:47:37;26.20;99.30
18101;DHT22;9177;49.156;8.142;2023-07-24T12:50:04;26.20;99.10
18101;DHT22;9177;49.156;8.142;2023-07-24T12:52:33;26.30;99.20
18101;DHT22;9177;49.156;8.142;2023-07-24T12:55:00;26.20;99.20
18101;DHT22;9177;49.156;8.142;2023-07-24T12:57:28;26.30;99.10
18101;DHT22;9177;49.156;8.142;2023-07-24T12:59:55;26.30;99.10
18101;DHT22;9177;49.156;8.142;2023-07-24T13:02:22;26.30;99.10
18101;DHT22;9177;49.156;8.142;2023-07-24T13:04:53;26.30;99.10
18101;DHT22;9177;49.156;8.142;2023-07-24T13:07:20;26.30;99.10
18101;DHT22;9177;49.156;8.142;2023-07-24T13:09:48;26.30;99.10
18101;DHT22;9177;49.156;8.142;2023-07-24T13:12:16;26.30;99.20
18101;DHT22;9177;49.156;8.142;2023-07-24T13:14:43;26.30;99.20
18101;DHT22;9177;49.156;8.142;2023-07-24T13:17:10;26.40;99.20
18101;DHT22;9177;49.156;8.142;2023-07-24T13:19:37;26.40;99.20
18101;DHT22;9177;49.156;8.142;2023-07-24T13:22:05;26.40;99.10
18101;DHT22;9177;49.156;8.142;2023-07-24T13:24:43;26.40;99.10
18101;DHT22;9177;49.156;8.142;2023-07-24T13:27:12;26.40;99.60
18101;DHT22;9177;49.156;8.142;2023-07-24T13:29:39;26.50;99.10
18101;DHT22;9177;49.156;8.142;2023-07-24T13:32:07;26.50;99.20
18101;DHT22;9177;49.156;8.142;2023-07-24T13:34:34;26.50;99.20
18101;DHT22;9177;49.156;8.142;2023-07-24T13:37:06;26.50;99.30
18101;DHT22;9177;49.156;8.142;2023-07-24T13:39:48;26.50;99.20
18101;DHT22;9177;49.156;8.142;2023-07-24T13:42:16;26.40;99.30
18101;DHT22;9177;49.156;8.142;2023-07-24T13:44:43;26.40;99.30
18101;DHT22;9177;49.156;8.142;2023-07-24T13:47:10;26.30;99.40
18101;DHT22;9177;49.156;8.142;2023-07-24T13:49:37;26.30;99.50
18101;DHT22;9177;49.156;8.142;2023-07-24T13:52:05;26.20;99.50
18101;DHT22;9177;49.156;8.142;2023-07-24T13:54:35;26.20;99.60
18101;DHT22;9177;49.156;8.142;2023-07-24T13:57:02;26.10;99.70
18101;DHT22;9177;49.156;8.142;2023-07-24T13:59:33;26.10;99.80
18101;DHT22;9177;49.156;8.142;2023-07-24T14:02:00;26.00;99.80
18101;DHT22;9177;49.156;8.142;2023-07-24T14:04:27;26.00;99.90
18101;DHT22;9177;49.156;8.142;2023-07-24T14:06:55;25.90;99.90
18101;DHT22;9177;49.156;8.142;2023-07-24T14:09:22;25.90;99.90
18101;DHT22;9177;49.156;8.142;2023-07-24T14:11:49;25.80;99.90
18101;DHT22;9177;49.156;8.142;2023-07-24T14:14:18;25.80;99.90
18101;DHT22;9177;49.156;8.142;2023-07-24T14:16:46;25.70;99.90
18101;DHT22;9177;49.156;8.142;2023-07-24T14:19:13;25.70;99.90
18101;DHT22;9177;49.156;8.142;2023-07-24T14:21:40;25.70;99.90
18101;DHT22;9177;49.156;8.142;2023-07-24T14:24:10;25.60;99.90
18101;DHT22;9177;49.156;8.142;2023-07-24T14:26:38;25.60;99.90
18101;DHT22;9177;49.156;8.142;2023-07-24T14:29:07;25.60;99.90
18101;DHT22;9177;49.156;8.142;2023-07-24T14:31:34;25.60;99.90
18101;DHT22;9177;49.156;8.142;2023-07-24T14:34:03;25.50;99.90
18101;DHT22;9177;49.156;8.142;2023-07-24T14:36:30;25.50;99.90
18101;DHT22;9177;49.156;8.142;2023-07-24T14:38:59;25.50;99.90
18101;DHT22;9177;49.156;8.142;2023-07-24T14:41:27;25.50;99.90
18101;DHT22;9177;49.156;8.142;2023-07-24T14:43:54;25.50;99.90
18101;DHT22;9177;49.156;8.142;2023-07-24T14:46:25;25.50;99.90
18101;DHT22;9177;49.156;8.142;2023-07-24T14:48:52;25.50;99.90
18101;DHT22;9177;49.156;8.142;2023-07-24T14:51:20;25.50;99.90
18101;DHT22;9177;49.156;8.142;2023-07-24T14:53:47;25.60;99.90
18101;DHT22;9177;49.156;8.142;2023-07-24T14:56:14;25.70;99.90
18101;DHT22;9177;49.156;8.142;2023-07-24T14:58:42;25.70;99.90
18101;DHT22;9177;49.156;8.142;2023-07-24T15:01:11;25.80;99.90
18101;DHT22;9177;49.156;8.142;2023-07-24T15:03:37;25.90;99.90
18101;DHT22;9177;49.156;8.142;2023-07-24T15:06:07;25.90;99.90
18101;DHT22;9177;49.156;8.142;2023-07-24T15:08:35;26.00;99.90
18101;DHT22;9177;49.156;8.142;2023-07-24T15:11:03;25.90;99.90
18101;DHT22;9177;49.156;8.142;2023-07-24T15:13:30;26.00;99.90
18101;DHT22;9177;49.156;8.142;2023-07-24T15:15:57;26.00;99.90
18101;DHT22;9177;49.156;8.142;2023-07-24T15:18:24;26.00;99.90
18101;DHT22;9177;49.156;8.142;2023-07-24T15:20:51;26.10;99.90
18101;DHT22;9177;49.156;8.142;2023-07-24T15:23:19;26.10;99.90
18101;DHT22;9177;49.156;8.142;2023-07-24T15:25:52;26.10;99.90
18101;DHT22;9177;49.156;8.142;2023-07-24T15:28:19;26.20;99.90
18101;DHT22;9177;49.156;8.142;2023-07-24T15:30:50;26.20;99.90
18101;DHT22;9177;49.156;8.142;2023-07-24T15:33:18;26.20;99.90
18101;DHT22;9177;49.156;8.142;2023-07-24T15:35:48;26.20;99.90
18101;DHT22;9177;49.156;8.142;2023-07-24T15:38:23;26.20;99.90
18101;DHT22;9177;49.156;8.142;2023-07-24T15:40:59;26.10;99.90
18101;DHT22;9177;49.156;8.142;2023-07-24T15:43:26;26.10;99.90
18101;DHT22;9177;49.156;8.142;2023-07-24T15:45:53;26.10;99.90
18101;DHT22;9177;49.156;8.142;2023-07-24T15:48:20;26.00;99.90
18101;DHT22;9177;49.156;8.142;2023-07-24T15:50:47;26.00;99.90
18101;DHT22;9177;49.156;8.142;2023-07-24T15:53:14;26.00;99.90